Time;durP1;ratioP1;P1;durP2;ratioP2;P2;SDS_P1;SDS_P2;PMS_P1;PMS_P2;Temp;Humidity;BMP_temperature;BMP_pressure;BME280_temperature;BME280_humidity;BME280_pressure;Samples;Min_cycle;Max_cycle;Signal;HPM_P1;HPM_P2
2024/04/25 00:01:28;;;;;;;;;35.67;31.00;;;;;5.78;100.00;98508.53;6275215;20;2869123;-48
2024/04/25 00:03:56;;;;;;;;;32.50;30.00;;;;;5.64;100.00;98506.72;6304486;20;2844108;-48
2024/04/25 00:06:25;;;;;;;;;42.00;34.33;;;;;5.72;100.00;98508.94;6275148;20;2869247;-47
2024/04/25 00:08:52;;;;;;;;;30.00;28.00;;;;;5.71;100.00;98501.88;6303588;20;2831552;-48
2024/04/25 00:11:21;;;;;;;;;27.50;27.50;;;;;5.60;100.00;98518.50;6276381;20;2846303;-48
2024/04/25 00:13:49;;;;;;;;;32.00;27.50;;;;;5.58;100.00;98522.19;6275285;20;2848221;-47
2024/04/25 00:16:17;;;;;;;;;29.50;27.50;;;;;5.71;100.00;98520.50;6273638;20;2835743;-49
2024/04/25 00:18:45;;;;;;;;;27.00;26.00;;;;;5.69;100.00;98533.09;6274177;20;2846127;-48
2024/04/25 00:21:12;;;;;;;;;30.00;25.50;;;;;5.69;100.00;98538.41;6275117;20;2849299;-49
2024/04/25 00:23:40;;;;;;;;;35.00;32.00;;;;;5.60;100.00;98544.25;6272283;20;2864997;-48
2024/04/25 00:26:08;;;;;;;;;31.50;26.00;;;;;5.50;100.00;98549.28;6276172;20;2846135;-50
2024/04/25 00:28:35;;;;;;;;;27.50;27.00;;;;;5.53;100.00;98549.13;6274283;20;2835689;-46
2024/04/25 00:31:04;;;;;;;;;30.50;26.00;;;;;5.54;100.00;98547.31;6275524;20;2851338;-47
2024/04/25 00:33:31;;;;;;;;;28.50;24.00;;;;;5.51;100.00;98548.34;6271564;20;2849268;-49
2024/04/25 00:35:59;;;;;;;;;30.00;25.00;;;;;5.59;100.00;98547.88;6271014;20;2851482;-47
2024/04/25 00:38:26;;;;;;;;;25.00;22.00;;;;;5.56;100.00;98556.06;6272855;20;2500292;-48
2024/04/25 00:40:52;;;;;;;;;24.50;23.50;;;;;5.44;100.00;98552.31;6274077;20;2500385;-45
2024/04/25 00:43:31;;;;;;;;;27.00;23.50;;;;;5.37;100.00;98550.94;6270172;20;2847236;-49
2024/04/25 00:46:01;;;;;;;;;26.00;24.50;;;;;5.37;100.00;98559.81;6276216;20;2854532;-49
2024/04/25 00:48:30;;;;;;;;;23.00;21.67;;;;;5.42;100.00;98557.72;6275266;20;3562798;-51
2024/04/25 00:51:01;;;;;;;;;30.50;27.50;;;;;5.36;100.00;98560.75;6275024;20;2849264;-48
2024/04/25 00:53:29;;;;;;;;;29.00;23.00;;;;;5.37;100.00;98556.25;6275812;20;2845040;-51
2024/04/25 00:55:57;;;;;;;;;27.50;26.00;;;;;5.31;100.00;98559.28;6274765;20;2852538;-50
2024/04/25 00:58:27;;;;;;;;;27.50;24.50;;;;;5.42;100.00;98562.19;6272709;20;2848213;-48
2024/04/25 01:00:57;;;;;;;;;31.00;30.50;;;;;5.44;100.00;98554.97;6274991;20;2856558;-48
2024/04/25 01:03:25;;;;;;;;;28.00;28.00;;;;;5.29;100.00;98559.38;6271973;20;2844077;-47
2024/04/25 01:05:55;;;;;;;;;29.50;26.50;;;;;5.36;100.00;98555.41;6273029;20;2854574;-48
2024/04/25 01:08:24;;;;;;;;;28.00;26.00;;;;;5.32;100.00;98561.88;6273580;20;2845074;-47
2024/04/25 01:10:51;;;;;;;;;26.00;24.00;;;;;5.24;100.00;98570.31;6273539;20;2559823;-48
2024/04/25 01:13:19;;;;;;;;;33.00;29.00;;;;;5.30;100.00;98571.75;6300281;20;2849419;-48
2024/04/25 01:15:47;;;;;;;;;28.50;28.00;;;;;5.19;100.00;98571.53;6275785;20;2855463;-52
2024/04/25 01:18:15;;;;;;;;;28.00;25.50;;;;;5.20;100.00;98567.91;6274120;20;2850279;-48
2024/04/25 01:20:43;;;;;;;;;33.50;28.50;;;;;5.10;100.00;98561.38;6274343;20;2852472;-52
2024/04/25 01:23:13;;;;;;;;;32.00;27.00;;;;;5.20;100.00;98567.91;6273736;20;2836903;-51
2024/04/25 01:25:44;;;;;;;;;27.50;26.00;;;;;5.07;100.00;98568.59;6275411;20;2848333;-54
2024/04/25 01:28:15;;;;;;;;;27.00;26.00;;;;;4.99;100.00;98570.00;6274513;20;2833646;-53
2024/04/25 01:30:43;;;;;;;;;29.00;29.00;;;;;5.03;100.00;98569.72;6266200;20;2852500;-55
2024/04/25 01:33:13;;;;;;;;;33.50;30.00;;;;;5.07;100.00;98576.56;6263892;20;2840015;-50
2024/04/25 01:35:44;;;;;;;;;34.50;27.00;;;;;5.08;100.00;98582.75;6274494;20;2850305;-50
2024/04/25 01:38:12;;;;;;;;;35.00;30.50;;;;;5.06;100.00;98576.69;6272846;20;2850426;-51
2024/04/25 01:40:38;;;;;;;;;34.50;29.50;;;;;4.93;100.00;98573.84;6270518;20;2500785;-54
2024/04/25 01:43:06;;;;;;;;;32.50;30.00;;;;;4.93;100.00;98570.34;6267751;20;2854523;-53
2024/04/25 01:45:34;;;;;;;;;38.00;30.50;;;;;4.95;100.00;98576.41;6271165;20;2855683;-50
2024/04/25 01:48:02;;;;;;;;;39.00;31.50;;;;;5.01;100.00;98573.44;6273391;20;2853581;-50
2024/04/25 01:50:29;;;;;;;;;39.50;32.00;;;;;4.96;100.00;98570.16;6273785;20;2863982;-50
2024/04/25 01:52:57;;;;;;;;;40.50;32.50;;;;;4.88;100.00;98564.44;6268424;20;2859651;-52
2024/04/25 01:55:25;;;;;;;;;37.00;34.00;;;;;5.00;100.00;98566.38;6270275;20;2854509;-52
2024/04/25 01:57:53;;;;;;;;;42.00;37.00;;;;;4.96;100.00;98567.50;6265459;20;2830532;-49
2024/04/25 02:00:21;;;;;;;;;39.67;35.33;;;;;4.94;100.00;98572.91;6269412;20;3623262;-48
2024/04/25 02:02:49;;;;;;;;;30.00;29.00;;;;;4.75;100.00;98575.75;6301586;20;2846112;-50
2024/04/25 02:05:16;;;;;;;;;35.00;32.00;;;;;4.89;100.00;98569.63;6271174;20;2856535;-50
2024/04/25 02:07:44;;;;;;;;;39.00;32.50;;;;;4.75;100.00;98580.22;6272938;20;2863835;-54
2024/04/25 02:10:12;;;;;;;;;36.00;35.00;;;;;4.86;100.00;98572.47;6270938;20;2862814;-50
2024/04/25 02:12:39;;;;;;;;;40.00;37.50;;;;;4.62;100.00;98585.34;6270877;20;2857748;-51
2024/04/25 02:15:07;;;;;;;;;43.00;37.00;;;;;4.54;100.00;98585.75;6272192;20;2839020;-50
2024/04/25 02:17:40;;;;;;;;;43.33;37.33;;;;;4.63;100.00;98584.38;6271359;20;3611734;-51
2024/04/25 02:25:42;;;;;;;;;33.00;28.00;;;;;4.57;100.00;98574.94;6313453;20;2496133;-48
2024/04/25 02:28:11;;;;;;;;;50.00;34.67;;;;;4.64;100.00;98572.81;6278766;20;3650398;-49
2024/04/25 02:30:39;;;;;;;;;35.33;35.00;;;;;4.64;100.00;98580.81;6308279;20;2850285;-51
2024/04/25 02:33:07;;;;;;;;;46.33;37.33;;;;;4.61;100.00;98584.50;6309412;20;3628481;-52
2024/04/25 02:35:36;;;;;;;;;36.67;34.00;;;;;4.49;100.00;98581.66;6309093;20;2861898;-53
2024/04/25 02:38:03;;;;;;;;;50.00;39.00;;;;;4.42;100.00;98585.56;6305045;20;2849248;-54
2024/04/25 02:40:31;;;;;;;;;42.00;39.00;;;;;4.61;100.00;98591.63;6276073;20;2848678;-50
2024/04/25 02:42:59;;;;;;;;;40.67;35.33;;;;;4.66;100.00;98600.19;6276527;20;2870604;-51
2024/04/25 02:45:27;;;;;;;;;48.50;40.00;;;;;4.53;100.00;98594.69;6309315;20;2842987;-48
2024/04/25 02:47:54;;;;;;;;;37.50;36.00;;;;;4.64;100.00;98601.22;6277366;20;2861121;-52
2024/04/25 02:50:22;;;;;;;;;49.50;41.00;;;;;4.78;100.00;98604.81;6277761;20;2847304;-53
2024/04/25 02:52:50;;;;;;;;;49.33;39.67;;;;;4.65;100.00;98603.78;6276863;20;2865080;-53
2024/04/25 02:55:18;;;;;;;;;48.00;41.50;;;;;4.65;100.00;98602.94;6307462;20;2853415;-54
2024/04/25 02:57:46;;;;;;;;;44.00;40.00;;;;;4.65;100.00;98592.28;6276863;20;2842065;-53
2024/04/25 03:00:13;;;;;;;;;47.50;43.00;;;;;4.51;100.00;98607.19;6274840;20;2498327;-50
2024/04/25 03:02:41;;;;;;;;;52.50;41.00;;;;;4.40;100.00;98606.94;6271619;20;2853461;-52
2024/04/25 03:05:09;;;;;;;;;49.50;41.50;;;;;4.33;100.00;98602.88;6276653;20;2851377;-53
2024/04/25 03:07:37;;;;;;;;;49.00;42.50;;;;;4.40;100.00;98606.94;6276280;20;2847157;-55
2024/04/25 03:10:05;;;;;;;;;49.00;41.50;;;;;4.24;100.00;98600.69;6272557;20;2487788;-56
2024/04/25 03:12:32;;;;;;;;;48.00;41.00;;;;;4.36;100.00;98606.22;6275846;20;2836864;-54
2024/04/25 03:15:01;;;;;;;;;56.33;42.33;;;;;4.10;100.00;98604.09;6277128;20;2854483;-55
2024/04/25 03:17:29;;;;;;;;;54.50;45.50;;;;;4.30;100.00;98603.03;6306050;20;2855484;-55
2024/04/25 03:19:57;;;;;;;;;41.50;38.00;;;;;4.27;100.00;98603.22;6276308;20;2866944;-51
2024/04/25 03:22:24;;;;;;;;;54.50;41.50;;;;;4.24;100.00;98608.66;6274993;20;2847184;-51
2024/04/25 03:24:53;;;;;;;;;47.33;40.67;;;;;4.22;100.00;98615.88;6277700;20;2854520;-52
2024/04/25 03:27:19;;;;;;;;;43.00;39.50;;;;;4.15;100.00;98616.19;6305185;20;2495270;-51
2024/04/25 03:29:47;;;;;;;;;46.50;42.00;;;;;4.30;100.00;98614.53;6275239;20;2838917;-54
2024/04/25 03:32:13;;;;;;;;;58.00;44.00;;;;;4.20;100.00;98621.25;6274466;20;2497235;-49
2024/04/25 03:34:42;;;;;;;;;52.67;41.33;;;;;4.10;100.00;98617.38;6273488;20;3613986;-53
2024/04/25 03:37:10;;;;;;;;;54.50;45.00;;;;;4.24;100.00;98619.28;6306581;20;2859686;-52
2024/04/25 03:39:38;;;;;;;;;49.67;41.67;;;;;4.00;100.00;98613.47;6274113;20;2840895;-53
2024/04/25 03:42:06;;;;;;;;;49.00;39.50;;;;;4.10;100.00;98623.53;6305914;20;2839868;-54
2024/04/25 03:44:33;;;;;;;;;41.50;36.50;;;;;4.14;100.00;98618.94;6273309;20;2500271;-52
2024/04/25 03:47:00;;;;;;;;;54.50;44.50;;;;;4.18;100.00;98623.97;6277131;20;2854513;-52
2024/04/25 03:49:27;;;;;;;;;47.00;44.00;;;;;4.18;100.00;98623.97;6273213;20;2499245;-53
2024/04/25 03:51:55;;;;;;;;;47.00;41.00;;;;;4.17;100.00;98622.28;6278508;20;2859639;-52
2024/04/25 03:54:21;;;;;;;;;58.50;46.50;;;;;4.04;100.00;98623.00;6272670;20;2503572;-54
2024/04/25 03:56:48;;;;;;;;;57.50;43.50;;;;;3.99;100.00;98615.28;6272955;20;2494085;-53
2024/04/25 03:59:16;;;;;;;;;55.50;44.00;;;;;4.08;100.00;98620.13;6273119;20;2855866;-54
2024/04/25 04:01:43;;;;;;;;;57.00;43.50;;;;;3.98;100.00;98613.56;6276346;20;2859679;-55
2024/04/25 04:04:11;;;;;;;;;52.67;40.00;;;;;4.02;100.00;98624.88;6276055;20;2861783;-53
2024/04/25 04:06:40;;;;;;;;;60.00;45.33;;;;;3.95;100.00;98619.91;6307403;20;2878417;-55
2024/04/25 04:09:08;;;;;;;;;54.33;45.00;;;;;3.95;100.00;98613.72;6306008;20;2860697;-51
2024/04/25 04:11:38;;;;;;;;;54.00;44.00;;;;;4.07;100.00;98610.41;6309483;20;2853195;-51
2024/04/25 04:14:06;;;;;;;;;55.00;47.50;;;;;4.03;100.00;98619.50;6275188;20;2856549;-50
2024/04/25 04:16:34;;;;;;;;;56.50;44.00;;;;;4.21;100.00;98620.31;6276480;20;2867048;-56
2024/04/25 04:19:01;;;;;;;;;57.50;46.50;;;;;4.22;100.00;98621.19;6274552;20;2862824;-49
2024/04/25 04:21:29;;;;;;;;;51.00;42.00;;;;;4.15;100.00;98624.16;6276591;20;2848257;-50
2024/04/25 04:23:56;;;;;;;;;56.00;44.00;;;;;4.26;100.00;98623.59;6275616;20;2857526;-50
2024/04/25 04:26:23;;;;;;;;;47.50;43.00;;;;;4.39;100.00;98618.47;6270946;20;2493020;-53
2024/04/25 04:28:50;;;;;;;;;46.00;39.00;;;;;4.55;100.00;98619.34;6275350;20;2862912;-49
2024/04/25 04:31:18;;;;;;;;;57.00;46.00;;;;;6.73;100.00;98635.94;6273423;20;2856632;-49
2024/04/25 04:33:45;;;;;;;;;47.00;39.50;;;;;8.34;100.00;98653.88;6277139;20;2844020;-51
2024/04/25 04:36:13;;;;;;;;;52.00;42.50;;;;;8.26;100.00;98664.25;6273806;20;2853501;-51
2024/04/25 04:38:40;;;;;;;;;52.00;42.00;;;;;8.93;89.24;98664.91;6275478;20;2850433;-51
2024/04/25 04:41:08;;;;;;;;;50.50;42.00;;;;;8.10;99.60;98664.44;6275067;20;2861816;-54
2024/04/25 04:43:37;;;;;;;;;52.00;40.50;;;;;11.09;82.91;98682.63;6275179;20;2860678;-53
2024/04/25 04:46:05;;;;;;;;;40.00;36.00;;;;;10.65;78.02;98676.22;6274031;20;2855570;-53
2024/04/25 04:48:33;;;;;;;;;45.00;40.00;;;;;9.74;81.61;98684.94;6273250;20;2854521;-52
2024/04/25 04:51:02;;;;;;;;;41.00;35.33;;;;;11.07;79.65;98686.41;6275249;20;2873283;-52
2024/04/25 04:53:30;;;;;;;;;42.67;36.33;;;;;10.20;78.84;98684.16;6306556;20;2854470;-53
2024/04/25 04:55:57;;;;;;;;;49.00;39.00;;;;;9.06;91.04;98688.13;6308158;20;3602331;-55
2024/04/25 04:58:25;;;;;;;;;44.50;36.00;;;;;7.16;100.00;98688.41;6270142;20;2855578;-51
2024/04/25 05:00:52;;;;;;;;;42.00;38.50;;;;;6.30;100.00;98678.59;6274942;20;2834741;-49
2024/04/25 05:03:21;;;;;;;;;45.00;37.33;;;;;6.37;100.00;98676.41;6276306;20;2860819;-46
2024/04/25 05:05:48;;;;;;;;;48.00;41.00;;;;;6.14;100.00;98678.66;6311415;20;3595032;-46
2024/04/25 05:08:17;;;;;;;;;52.33;40.00;;;;;6.31;100.00;98680.31;6272369;20;3616952;-45
2024/04/25 05:10:44;;;;;;;;;49.50;41.00;;;;;6.09;100.00;98677.22;6306317;20;2858594;-46
2024/04/25 05:13:13;;;;;;;;;51.33;43.67;;;;;6.29;100.00;98682.22;6274208;20;2866105;-47
2024/04/25 05:15:40;;;;;;;;;47.00;39.50;;;;;7.26;100.00;98694.88;6304155;20;2861761;-46
2024/04/25 05:18:09;;;;;;;;;35.00;34.33;;;;;9.61;97.81;98703.75;6271878;20;2857695;-48
2024/04/25 05:20:36;;;;;;;;;38.00;36.00;;;;;9.13;91.38;98703.63;6304651;20;2862774;-47
2024/04/25 05:23:04;;;;;;;;;42.00;38.00;;;;;7.52;100.00;98703.03;6273373;20;2846188;-47
2024/04/25 05:25:32;;;;;;;;;42.67;37.33;;;;;8.54;100.00;98706.03;6273753;20;3621179;-48
2024/04/25 05:28:00;;;;;;;;;42.50;38.00;;;;;7.81;100.00;98695.78;6303595;20;2852480;-48
2024/04/25 05:30:27;;;;;;;;;43.00;38.00;;;;;10.13;91.37;98703.50;6271706;20;2862813;-47
2024/04/25 05:32:56;;;;;;;;;37.33;35.00;;;;;9.75;93.69;98705.41;6272784;20;2852456;-46
2024/04/25 05:35:24;;;;;;;;;45.00;36.67;;;;;8.51;99.30;98707.09;6307936;20;3611819;-47
2024/04/25 05:37:52;;;;;;;;;41.00;34.67;;;;;7.89;100.00;98701.47;6273266;20;2849317;-47
2024/04/25 05:40:19;;;;;;;;;36.67;34.00;;;;;7.88;100.00;98711.31;6311796;20;3591936;-46
2024/04/25 05:42:48;;;;;;;;;40.67;35.67;;;;;8.04;100.00;98718.31;6273238;20;2867529;-48
2024/04/25 05:45:16;;;;;;;;;36.00;34.00;;;;;8.55;100.00;98719.28;6302687;20;2862806;-46
2024/04/25 05:47:44;;;;;;;;;38.00;35.00;;;;;9.25;97.63;98718.00;6308912;20;3579480;-45
2024/04/25 05:50:12;;;;;;;;;38.00;35.00;;;;;10.37;87.68;98723.13;6273015;20;2859208;-45
2024/04/25 05:52:40;;;;;;;;;33.00;31.00;;;;;12.17;77.29;98723.13;6305864;20;3577359;-46
2024/04/25 05:55:08;;;;;;;;;37.00;32.50;;;;;9.15;87.77;98719.59;6268799;20;2860719;-47
2024/04/25 05:57:35;;;;;;;;;40.50;35.00;;;;;8.47;100.00;98718.97;6272389;20;2856596;-46
2024/04/25 06:00:05;;;;;;;;;40.00;33.33;;;;;8.49;100.00;98719.72;6257664;20;3612787;-46
2024/04/25 06:02:33;;;;;;;;;31.33;31.33;;;;;8.24;100.00;98724.97;6308053;20;3601358;-45
2024/04/25 06:05:01;;;;;;;;;31.67;29.33;;;;;8.07;100.00;98720.78;6271925;20;2856629;-44
2024/04/25 06:07:28;;;;;;;;;33.00;31.67;;;;;8.29;100.00;98731.75;6309125;20;3599247;-45
2024/04/25 06:09:57;;;;;;;;;38.00;33.33;;;;;8.30;100.00;98732.63;6269097;20;3599250;-47
2024/04/25 06:12:24;;;;;;;;;38.33;33.00;;;;;8.33;100.00;98732.41;6309676;20;3595189;-46
2024/04/25 06:14:53;;;;;;;;;30.33;30.33;;;;;8.71;98.58;98731.63;6270181;20;2853664;-45
2024/04/25 06:17:20;;;;;;;;;37.33;32.00;;;;;8.59;98.92;98722.63;6308013;20;3600270;-47
2024/04/25 06:19:48;;;;;;;;;34.67;32.67;;;;;8.76;100.00;98727.66;6272581;20;2845113;-46
2024/04/25 06:22:16;;;;;;;;;36.00;34.33;;;;;8.67;100.00;98722.09;6306959;20;3582778;-48
2024/04/25 06:24:44;;;;;;;;;38.33;34.00;;;;;8.89;98.44;98726.81;6271932;20;3623196;-45
2024/04/25 06:27:12;;;;;;;;;38.33;35.00;;;;;8.71;99.17;98721.75;6307074;20;3593029;-49
2024/04/25 06:29:40;;;;;;;;;33.00;32.33;;;;;8.88;95.96;98725.94;6273138;20;2848222;-46
2024/04/25 06:32:08;;;;;;;;;39.00;31.33;;;;;9.21;95.37;98721.84;6303196;20;3630477;-45
2024/04/25 06:34:36;;;;;;;;;33.33;30.67;;;;;9.15;94.30;98730.31;6305820;20;3607618;-46
2024/04/25 06:37:07;;;;;;;;;34.00;30.67;;;;;9.43;93.10;98727.38;6273564;20;2854556;-45
2024/04/25 06:39:35;;;;;;;;;31.00;27.33;;;;;9.55;92.30;98733.66;6303683;20;3596121;-48
2024/04/25 06:42:04;;;;;;;;;29.67;28.33;;;;;9.54;92.68;98740.00;6272197;20;2851607;-44
2024/04/25 06:44:31;;;;;;;;;33.33;29.33;;;;;9.80;88.79;98740.78;6308080;20;3589914;-47
2024/04/25 06:47:01;;;;;;;;;36.00;30.33;;;;;9.92;88.30;98747.03;6274303;20;3593994;-45
2024/04/25 06:49:29;;;;;;;;;34.33;29.33;;;;;10.39;84.04;98749.84;6304533;20;3597213;-46
2024/04/25 06:51:58;;;;;;;;;31.67;27.33;;;;;10.35;83.89;98746.56;6272392;20;2845098;-47
2024/04/25 06:54:26;;;;;;;;;36.33;33.00;;;;;10.96;83.25;98749.88;6305401;20;3614956;-46
2024/04/25 06:56:53;;;;;;;;;30.00;30.00;;;;;11.17;81.24;98754.56;6277780;20;3577428;-46
2024/04/25 06:59:21;;;;;;;;;29.33;26.67;;;;;11.05;79.21;98756.34;6305614;20;3604575;-48
2024/04/25 07:01:50;;;;;;;;;29.33;27.67;;;;;11.09;78.85;98760.53;6272539;20;3610663;-45
2024/04/25 07:04:18;;;;;;;;;26.67;26.67;;;;;11.81;77.15;98754.72;6305717;20;3596082;-45
2024/04/25 07:06:46;;;;;;;;;19.00;19.00;;;;;11.80;75.97;98766.47;6271359;20;2837844;-45
2024/04/25 07:09:14;;;;;;;;;22.67;22.67;;;;;11.85;76.68;98768.81;6274174;20;3580603;-53
2024/04/25 07:11:42;;;;;;;;;28.00;26.33;;;;;11.87;72.99;98769.53;6279080;20;3601397;-52
2024/04/25 07:14:09;;;;;;;;;30.67;27.00;;;;;12.44;71.30;98778.31;6282295;20;3588869;-53
2024/04/25 07:16:37;;;;;;;;;30.33;27.67;;;;;12.68;69.29;98781.63;6279462;20;3596113;-51
2024/04/25 07:19:05;;;;;;;;;28.33;25.33;;;;;12.43;69.44;98788.25;6278084;20;3608662;-49
2024/04/25 07:21:33;;;;;;;;;24.00;24.00;;;;;12.48;67.66;98796.78;6310922;20;3599292;-55
2024/04/25 07:24:01;;;;;;;;;24.00;24.00;;;;;12.93;67.24;98801.94;6279966;20;3590985;-55
2024/04/25 07:26:30;;;;;;;;;23.00;23.00;;;;;13.19;67.41;98801.53;6269423;20;2849321;-49
2024/04/25 07:28:57;;;;;;;;;27.00;26.33;;;;;12.91;66.28;98792.28;6307531;20;3591025;-53
2024/04/25 07:31:26;;;;;;;;;25.33;25.33;;;;;12.59;66.04;98806.66;6275837;20;2854548;-52
2024/04/25 07:33:53;;;;;;;;;23.67;23.67;;;;;12.96;63.53;98804.38;6308502;20;3582704;-55
2024/04/25 07:36:21;;;;;;;;;26.33;24.00;;;;;12.82;63.66;98818.19;6277931;20;3591922;-53
2024/04/25 07:38:49;;;;;;;;;24.00;23.50;;;;;13.25;61.83;98811.78;6276774;20;2838821;-51
2024/04/25 07:41:17;;;;;;;;;26.00;26.00;;;;;13.61;59.93;98806.88;6279910;20;3482585;-52
2024/04/25 07:43:45;;;;;;;;;22.00;21.00;;;;;13.13;58.94;98813.69;6306465;20;2846225;-54
2024/04/25 07:46:12;;;;;;;;;21.33;21.33;;;;;13.37;58.93;98810.75;6308287;20;3585736;-51
2024/04/25 07:48:40;;;;;;;;;26.33;25.67;;;;;13.08;60.86;98809.69;6277338;20;3600251;-50
2024/04/25 07:51:08;;;;;;;;;26.00;24.67;;;;;13.28;58.19;98816.94;6277973;20;3586831;-53
2024/04/25 07:53:36;;;;;;;;;31.00;27.33;;;;;14.11;59.74;98819.56;6309631;20;3594012;-49
2024/04/25 07:56:05;;;;;;;;;23.33;21.00;;;;;13.71;58.27;98825.81;6275190;20;2843082;-54
2024/04/25 07:58:32;;;;;;;;;23.67;23.67;;;;;14.09;56.32;98818.88;6311615;20;3586740;-51
2024/04/25 08:01:01;;;;;;;;;28.00;27.00;;;;;14.05;56.80;98815.56;6278622;20;3584635;-51
2024/04/25 08:03:29;;;;;;;;;22.00;21.67;;;;;13.53;58.26;98825.59;6278298;20;3580518;-52
2024/04/25 08:05:56;;;;;;;;;23.33;20.33;;;;;14.09;55.72;98821.56;6278196;20;3591912;-52
2024/04/25 08:08:23;;;;;;;;;23.00;22.00;;;;;14.03;53.95;98818.41;6277934;20;3585741;-49
2024/04/25 08:10:51;;;;;;;;;26.00;23.33;;;;;14.13;54.42;98825.69;6279058;20;3593085;-49
2024/04/25 08:13:19;;;;;;;;;23.00;22.33;;;;;14.42;53.81;98825.72;6280547;20;3581557;-51
2024/04/25 08:15:47;;;;;;;;;23.00;23.00;;;;;13.95;54.63;98822.78;6277554;20;2847152;-52
2024/04/25 08:18:14;;;;;;;;;26.33;24.33;;;;;14.53;54.33;98814.81;6310718;20;3600312;-52
2024/04/25 08:20:42;;;;;;;;;24.00;24.00;;;;;14.88;52.81;98824.22;6276104;20;3598232;-55
2024/04/25 08:23:09;;;;;;;;;21.00;18.00;;;;;14.66;54.09;98820.78;6278008;20;2839893;-54
2024/04/25 08:25:37;;;;;;;;;29.00;26.00;;;;;14.01;52.81;98824.94;6276975;20;3591908;-54
2024/04/25 08:28:08;;;;;;;;;22.00;22.00;;;;;14.28;52.74;98814.34;6278169;20;3581543;-54
2024/04/25 08:30:36;;;;;;;;;25.00;25.00;;;;;14.51;52.53;98816.81;6275039;20;2849368;-51
2024/04/25 08:33:04;;;;;;;;;23.00;21.67;;;;;15.20;53.32;98814.94;6308869;20;3577564;-51
2024/04/25 08:35:32;;;;;;;;;27.00;24.33;;;;;15.20;51.30;98814.94;6276868;20;3598361;-54
2024/04/25 08:38:00;;;;;;;;;24.67;21.67;;;;;15.35;52.38;98819.75;6276407;20;3582577;-52
2024/04/25 08:40:28;;;;;;;;;22.00;22.00;;;;;15.00;52.88;98820.38;6278027;20;3578400;-51
2024/04/25 08:42:56;;;;;;;;;23.50;23.50;;;;;13.05;58.91;98813.50;6272266;20;2850335;-49
2024/04/25 08:45:24;;;;;;;;;28.00;27.00;;;;;14.95;53.43;98814.53;6278840;20;3593113;-53
2024/04/25 08:47:56;;;;;;;;;24.00;24.00;;;;;14.89;52.65;98817.81;6278282;20;3594030;-54
2024/04/25 08:50:29;;;;;;;;;24.50;24.00;;;;;15.30;51.79;98821.19;6274572;20;2851149;-53
2024/04/25 08:52:59;;;;;;;;;26.00;26.00;;;;;13.38;54.40;98820.56;6278122;20;3603380;-53
2024/04/25 08:55:26;;;;;;;;;27.33;25.00;;;;;14.42;52.47;98823.88;6277662;20;3598191;-51
2024/04/25 08:57:54;;;;;;;;;21.00;21.00;;;;;15.26;49.68;98828.72;6276020;20;3582636;-53
2024/04/25 09:00:21;;;;;;;;;25.33;23.33;;;;;14.75;48.40;98819.13;6277183;20;3588803;-50
2024/04/25 09:02:51;;;;;;;;;25.33;23.00;;;;;14.90;50.25;98816.81;6274793;20;2852447;-51
2024/04/25 09:05:23;;;;;;;;;25.00;23.00;;;;;15.19;49.51;98821.34;6308215;20;3581526;-51
2024/04/25 09:07:51;;;;;;;;;19.67;19.33;;;;;15.73;45.33;98822.50;6277842;20;3577331;-55
2024/04/25 09:10:18;;;;;;;;;21.50;18.00;;;;;15.12;47.01;98816.50;6273082;20;2834652;-52
2024/04/25 09:12:46;;;;;;;;;12.67;12.67;;;;;13.83;48.60;98816.66;6273835;20;3537888;-52
2024/04/25 09:15:13;;;;;;;;;19.00;19.00;;;;;13.86;50.31;98820.91;6273665;20;2829597;-55
2024/04/25 09:17:41;;;;;;;;;18.50;18.50;;;;;13.94;49.47;98824.63;6273995;20;2838168;-52
2024/04/25 09:20:09;;;;;;;;;21.33;21.33;;;;;13.32;51.26;98818.41;6276900;20;3563950;-53
2024/04/25 09:22:39;;;;;;;;;20.33;19.67;;;;;12.98;50.03;98819.53;6309791;20;3578388;-51
2024/04/25 09:25:07;;;;;;;;;19.50;19.50;;;;;12.86;50.51;98821.47;6273392;20;2844040;-50
2024/04/25 09:27:35;;;;;;;;;22.00;22.00;;;;;14.15;48.34;98807.50;6272561;20;2831659;-52
2024/04/25 09:30:05;;;;;;;;;20.00;20.00;;;;;14.57;47.78;98810.00;6272774;20;2842082;-51
2024/04/25 09:32:33;;;;;;;;;19.00;19.00;;;;;13.70;49.18;98816.88;6273220;20;2832639;-47
2024/04/25 09:35:00;;;;;;;;;17.00;15.00;;;;;13.73;48.12;98815.75;6274739;20;3549402;-50
2024/04/25 09:37:28;;;;;;;;;17.50;17.50;;;;;15.19;48.43;98815.94;6273663;20;2823325;-53
2024/04/25 09:39:57;;;;;;;;;21.50;20.50;;;;;14.52;46.32;98818.50;6270515;20;2847197;-54
2024/04/25 09:42:26;;;;;;;;;20.50;18.00;;;;;14.47;46.49;98815.38;6272612;20;2830559;-53
2024/04/25 09:44:58;;;;;;;;;18.00;18.00;;;;;14.71;47.62;98810.41;6277572;20;3568120;-50
2024/04/25 09:47:34;;;;;;;;;22.00;21.00;;;;;13.01;49.33;98811.22;6304778;20;2846120;-52
2024/04/25 09:50:18;;;;;;;;;16.50;16.50;;;;;13.33;48.03;98814.72;6272141;20;2829492;-50
2024/04/25 09:52:58;;;;;;;;;16.33;16.33;;;;;14.88;45.65;98814.28;6276363;20;2823268;-53
2024/04/25 09:55:39;;;;;;;;;19.00;17.33;;;;;15.13;46.24;98804.69;6308852;20;3573322;-50
2024/04/25 09:58:48;;;;;;;;;18.00;17.00;;;;;15.80;45.31;98810.09;6271576;20;2828534;-49
2024/04/25 10:01:15;;;;;;;;;13.50;12.00;;;;;15.84;42.00;98806.06;6276920;20;2805264;-49
2024/04/25 10:03:42;;;;;;;;;14.00;13.50;;;;;14.82;43.37;98812.13;6279604;20;2805547;-57
2024/04/25 10:06:10;;;;;;;;;15.00;15.00;;;;;14.64;44.44;98806.59;6272055;20;2491964;-57
2024/04/25 10:08:38;;;;;;;;;17.00;17.00;;;;;15.65;43.93;98806.97;6274291;20;2835683;-56
2024/04/25 10:11:07;;;;;;;;;17.00;16.00;;;;;15.98;42.94;98810.13;6274149;20;2834685;-57
2024/04/25 10:13:34;;;;;;;;;14.50;14.50;;;;;16.21;43.10;98813.28;6274101;20;2491993;-53
2024/04/25 10:16:00;;;;;;;;;15.00;15.00;;;;;16.18;42.29;98813.59;6273087;20;2491975;-55
2024/04/25 10:18:28;;;;;;;;;18.00;18.00;;;;;16.67;43.85;98808.69;6273603;20;2830497;-53
2024/04/25 10:21:03;;;;;;;;;14.00;14.00;;;;;16.43;42.59;98796.59;6273112;20;3529434;-49
2024/04/25 10:23:34;;;;;;;;;18.67;16.67;;;;;16.20;45.00;98806.16;6306985;20;3560671;-55
2024/04/25 10:26:02;;;;;;;;;14.50;14.50;;;;;16.05;43.71;98804.97;6302006;20;2807632;-52
2024/04/25 10:28:30;;;;;;;;;14.50;13.00;;;;;14.78;43.53;98802.59;6273890;20;2797572;-51
2024/04/25 10:30:59;;;;;;;;;13.00;13.00;;;;;14.39;45.69;98796.31;6270884;20;3527488;-55
2024/04/25 10:33:29;;;;;;;;;13.00;13.00;;;;;14.87;43.37;98793.63;6273309;20;3528529;-50
2024/04/25 10:36:06;;;;;;;;;13.33;13.33;;;;;15.37;40.95;98798.78;6304867;20;2805601;-48
2024/04/25 10:38:32;;;;;;;;;10.00;10.00;;;;;15.86;40.06;98792.41;6305886;20;2776359;-54
2024/04/25 10:40:59;;;;;;;;;12.50;12.50;;;;;16.85;38.34;98806.88;6276716;20;2797575;-53
2024/04/25 10:43:26;;;;;;;;;13.00;12.67;;;;;15.79;41.80;98795.69;6272313;20;3534659;-50
2024/04/25 10:45:53;;;;;;;;;17.00;15.50;;;;;14.69;45.62;98793.53;6275490;20;2500354;-49
2024/04/25 10:48:21;;;;;;;;;16.00;16.00;;;;;13.88;46.41;98795.50;6278246;20;2825384;-48
2024/04/25 10:50:49;;;;;;;;;14.00;13.50;;;;;13.52;47.00;98794.22;6278417;20;2794090;-51
2024/04/25 10:53:15;;;;;;;;;14.00;14.00;;;;;13.70;47.86;98789.91;6309292;20;2492113;-48
2024/04/25 10:55:42;;;;;;;;;14.00;14.00;;;;;14.27;47.99;98788.34;6281520;20;2792078;-51
2024/04/25 10:58:15;;;;;;;;;13.50;13.50;;;;;13.80;46.91;98792.63;6276333;20;2771199;-48
2024/04/25 11:00:44;;;;;;;;;11.33;11.33;;;;;13.63;48.25;98794.13;6276940;20;3523230;-53
2024/04/25 11:03:12;;;;;;;;;14.33;14.33;;;;;13.56;46.69;98795.66;6308428;20;3530313;-51
2024/04/25 11:05:43;;;;;;;;;11.67;11.67;;;;;14.89;44.07;98799.75;6274563;20;3524229;-51
2024/04/25 11:08:10;;;;;;;;;11.00;11.00;;;;;15.22;41.66;98794.00;6305604;20;3520056;-48
2024/04/25 11:10:39;;;;;;;;;12.33;11.33;;;;;16.45;41.50;98800.00;6275882;20;2801534;-53
2024/04/25 11:13:07;;;;;;;;;12.00;12.00;;;;;16.16;41.94;98797.47;6308153;20;3534650;-50